createdAt,value
2023-05-15T00:00:52.653Z,74.08
2023-05-15T00:01:52.908Z,74.28
2023-05-15T00:02:53.360Z,74.69
2023-05-15T00:03:53.530Z,74.72
2023-05-15T00:04:53.885Z,74.82
2023-05-15T00:05:54.106Z,75.43
2023-05-15T00:06:54.355Z,75.33
2023-05-15T00:07:54.607Z,74.82
2023-05-15T00:08:54.861Z,74.52
2023-05-15T00:09:55.093Z,75.33
2023-05-15T00:11:01.444Z,74.99
2023-05-15T00:11:56.673Z,74.79
2023-05-15T00:12:56.044Z,74.89
2023-05-15T00:13:56.298Z,74.89
2023-05-15T00:14:56.576Z,74.99
2023-05-15T00:15:56.801Z,74.89
2023-05-15T00:16:57.146Z,74.79
2023-05-15T00:17:57.536Z,74.69
2023-05-15T00:18:57.894Z,74.69
2023-05-15T00:19:58.103Z,74.79
2023-05-15T00:20:58.355Z,74.89
2023-05-15T00:21:58.704Z,75.30
2023-05-15T00:22:58.931Z,75.33
2023-05-15T00:23:59.200Z,75.54
2023-05-15T00:24:59.474Z,75.84
2023-05-15T00:25:59.682Z,76.45
2023-05-15T00:27:00.024Z,76.90
2023-05-15T00:28:00.296Z,77.00
2023-05-15T00:29:00.592Z,77.00
2023-05-15T00:30:00.808Z,77.00
2023-05-15T00:31:01.191Z,77.40
2023-05-15T00:32:01.432Z,77.51
2023-05-15T00:33:01.744Z,77.71
2023-05-15T00:34:02.025Z,77.71
2023-05-15T00:35:02.277Z,77.71
2023-05-15T00:36:02.508Z,78.02
2023-05-15T00:37:02.743Z,77.91
2023-05-15T00:38:03.097Z,77.81
2023-05-15T00:39:03.348Z,77.51
2023-05-15T00:40:03.589Z,77.30
2023-05-15T00:41:03.947Z,77.20
2023-05-15T00:42:04.212Z,77.40
2023-05-15T00:43:04.586Z,77.40
2023-05-15T00:44:04.848Z,77.30
2023-05-15T00:45:05.105Z,77.40
2023-05-15T00:46:05.334Z,77.30
2023-05-15T00:47:05.752Z,77.20
2023-05-15T00:48:06.038Z,77.00
2023-05-15T00:49:06.257Z,77.30
2023-05-15T00:50:06.509Z,77.91
2023-05-15T00:51:06.867Z,77.91
2023-05-15T00:52:07.106Z,77.75
2023-05-15T00:53:07.365Z,77.55
2023-05-15T00:54:07.732Z,77.85
2023-05-15T00:55:07.994Z,77.75
2023-05-15T00:56:08.243Z,78.16
2023-05-15T00:57:08.516Z,78.46
2023-05-15T00:58:08.761Z,79.07
2023-05-15T00:59:09.041Z,79.41
2023-05-15T01:00:09.278Z,79.52
2023-05-15T01:01:09.669Z,79.72
2023-05-15T01:02:09.920Z,79.52
2023-05-15T01:03:10.189Z,79.41
2023-05-15T01:04:10.429Z,79.41
2023-05-15T01:05:10.668Z,79.62
2023-05-15T01:06:11.052Z,79.21
2023-05-15T01:07:11.303Z,79.41
2023-05-15T01:08:11.544Z,79.52
2023-05-15T01:09:11.928Z,79.41
2023-05-15T01:10:12.165Z,78.60
2023-05-15T01:11:12.513Z,78.19
2023-05-15T01:12:12.902Z,77.89
2023-05-15T01:13:13.136Z,78.30
2023-05-15T01:14:13.409Z,78.39
2023-05-15T01:15:13.640Z,78.50
2023-05-15T01:16:14.001Z,78.19
2023-05-15T01:17:14.373Z,77.98
2023-05-15T01:18:14.919Z,78.30
2023-05-15T01:19:15.172Z,78.19
2023-05-15T01:20:15.227Z,78.09
2023-05-15T01:21:15.608Z,78.80
2023-05-15T01:22:15.842Z,79.21
2023-05-15T01:23:16.199Z,79.52
2023-05-15T01:24:16.489Z,79.52
2023-05-15T01:25:16.741Z,79.11
2023-05-15T01:26:17.096Z,78.60
2023-05-15T01:27:17.353Z,78.70
2023-05-15T01:28:17.595Z,79.11
2023-05-15T01:29:17.979Z,79.11
2023-05-15T01:30:18.233Z,79.41
2023-05-15T01:31:18.604Z,79.62
2023-05-15T01:32:19.539Z,79.21
2023-05-15T01:33:19.088Z,78.91
2023-05-15T01:34:19.464Z,79.21
2023-05-15T01:35:19.721Z,79.82
2023-05-15T01:36:20.064Z,79.41
2023-05-15T01:37:20.435Z,79.41
2023-05-15T01:38:20.665Z,79.32
2023-05-15T01:39:21.060Z,79.62
2023-05-15T01:40:21.309Z,79.82
2023-05-15T01:41:21.653Z,80.02
2023-05-15T01:42:21.910Z,79.93
2023-05-15T01:43:22.194Z,79.62
2023-05-15T01:44:22.502Z,79.62
2023-05-15T01:45:23.050Z,79.82
2023-05-15T01:46:23.088Z,80.13
2023-05-15T01:47:23.384Z,80.02
2023-05-15T01:48:23.587Z,79.62
2023-05-15T01:49:23.971Z,79.93
2023-05-15T01:50:24.206Z,79.82
2023-05-15T01:51:24.457Z,79.93
2023-05-15T01:52:24.705Z,79.93
2023-05-15T01:53:24.988Z,79.93
2023-05-15T01:54:25.252Z,80.13
2023-05-15T01:55:25.810Z,80.33
2023-05-15T01:56:25.765Z,80.33
2023-05-15T01:57:26.172Z,80.33
2023-05-15T01:58:26.302Z,80.13
2023-05-15T01:59:26.729Z,80.23
2023-05-15T02:00:26.980Z,80.13
2023-05-15T02:01:27.300Z,79.99
2023-05-15T02:02:27.550Z,79.68
2023-05-15T02:03:27.876Z,79.58
2023-05-15T02:04:28.167Z,79.68
2023-05-15T02:05:28.490Z,79.82
2023-05-15T02:06:28.756Z,79.82
2023-05-15T02:07:29.018Z,80.13
2023-05-15T02:08:29.260Z,80.13
2023-05-15T02:09:29.630Z,80.02
2023-05-15T02:10:30.127Z,79.93
2023-05-15T02:11:30.234Z,79.82
2023-05-15T02:12:30.518Z,79.82
2023-05-15T02:13:30.850Z,79.82
2023-05-15T02:14:31.174Z,79.82
2023-05-15T02:15:31.459Z,80.02
2023-05-15T02:16:31.779Z,79.93
2023-05-15T02:17:32.077Z,79.93
2023-05-15T02:18:32.321Z,80.23
2023-05-15T02:19:32.597Z,80.54
2023-05-15T02:20:32.857Z,80.88
2023-05-15T02:21:33.176Z,80.98
2023-05-15T02:22:33.506Z,81.39
2023-05-15T02:23:33.779Z,81.59
2023-05-15T02:24:34.110Z,81.53
2023-05-15T02:25:34.393Z,81.84
2023-05-15T02:26:34.651Z,82.14
2023-05-15T02:27:35.033Z,82.24
2023-05-15T02:28:35.287Z,82.35
2023-05-15T02:29:35.674Z,82.35
2023-05-15T02:30:36.988Z,82.55
2023-05-15T02:31:36.272Z,82.86
2023-05-15T02:32:36.574Z,82.69
2023-05-15T02:33:36.814Z,82.86
2023-05-15T02:34:37.076Z,82.86
2023-05-15T02:35:37.381Z,83.06
2023-05-15T02:36:37.657Z,83.26
2023-05-15T02:37:37.924Z,82.75
2023-05-15T02:38:38.197Z,82.65
2023-05-15T02:39:38.468Z,82.65
2023-05-15T02:40:38.740Z,82.75
2023-05-15T02:41:39.005Z,82.75
2023-05-15T02:42:39.275Z,82.75
2023-05-15T02:43:39.551Z,82.96
2023-05-15T02:44:39.856Z,82.86
2023-05-15T02:45:40.123Z,82.69
2023-05-15T02:46:40.350Z,82.79
2023-05-15T02:47:40.867Z,83.00
2023-05-15T02:48:41.056Z,83.20
2023-05-15T02:49:41.426Z,83.51
2023-05-15T02:50:41.717Z,83.61
2023-05-15T02:51:41.996Z,83.71
2023-05-15T02:52:42.232Z,83.71
2023-05-15T02:53:42.619Z,83.81
2023-05-15T02:54:43.907Z,83.92
2023-05-15T02:55:43.178Z,83.57
2023-05-15T02:56:43.427Z,83.37
2023-05-15T02:57:43.693Z,83.06
2023-05-15T02:58:43.959Z,83.16
2023-05-15T02:59:44.251Z,83.16
2023-05-15T03:00:44.491Z,83.26
2023-05-15T03:01:44.808Z,83.26
2023-05-15T03:02:45.065Z,83.26
2023-05-15T03:03:45.318Z,83.98
2023-05-15T03:04:46.064Z,84.08
2023-05-15T03:05:45.881Z,83.98
2023-05-15T03:06:46.176Z,83.87
2023-05-15T03:07:46.424Z,83.67
2023-05-15T03:08:46.666Z,83.47
2023-05-15T03:09:47.112Z,82.55
2023-05-15T03:10:47.327Z,81.32
2023-05-15T03:11:47.716Z,81.02
2023-05-15T03:12:48.000Z,81.09
2023-05-15T03:13:48.260Z,80.88
2023-05-15T03:14:48.535Z,80.98
2023-05-15T03:15:48.811Z,81.39
2023-05-15T03:16:49.148Z,81.43
2023-05-15T03:17:49.584Z,81.53
2023-05-15T03:18:49.866Z,82.14
2023-05-15T03:19:50.102Z,82.75
2023-05-15T03:20:50.363Z,82.65
2023-05-15T03:21:50.693Z,82.55
2023-05-15T03:22:51.102Z,82.04
2023-05-15T03:23:51.379Z,81.70
2023-05-15T03:24:51.614Z,81.18
2023-05-15T03:25:51.989Z,80.57
2023-05-15T03:26:52.249Z,80.78
2023-05-15T03:27:52.633Z,80.37
2023-05-15T03:28:52.891Z,80.16
2023-05-15T03:29:53.280Z,80.37
2023-05-15T03:30:53.557Z,80.30
2023-05-15T03:31:53.934Z,80.61
2023-05-15T03:32:54.258Z,80.91
2023-05-15T03:33:54.545Z,80.82
2023-05-15T03:34:54.825Z,80.65
2023-05-15T03:35:55.069Z,80.96
2023-05-15T03:36:55.357Z,81.16
2023-05-15T03:37:55.698Z,81.84
2023-05-15T03:38:55.933Z,82.45
2023-05-15T03:39:56.308Z,82.65
2023-05-15T03:40:56.563Z,82.75
2023-05-15T03:41:56.835Z,82.45
2023-05-15T03:42:57.174Z,82.39
2023-05-15T03:43:57.542Z,82.18
2023-05-15T03:44:57.812Z,82.28
2023-05-15T03:45:58.078Z,82.69
2023-05-15T03:46:58.368Z,83.00
2023-05-15T03:47:58.630Z,83.30
2023-05-15T03:48:58.865Z,83.51
2023-05-15T03:49:59.264Z,83.40
2023-05-15T03:50:59.545Z,82.49
2023-05-15T03:51:59.826Z,82.55
2023-05-15T03:53:00.121Z,82.04
2023-05-15T03:54:00.362Z,82.45
2023-05-15T03:55:00.678Z,82.35
2023-05-15T03:56:00.927Z,81.73
2023-05-15T03:57:01.303Z,82.04
2023-05-15T03:58:01.808Z,82.55
2023-05-15T03:59:01.877Z,82.45
2023-05-15T04:00:02.161Z,82.45
2023-05-15T04:01:02.433Z,82.35
2023-05-15T04:02:05.457Z,82.75
2023-05-15T04:03:03.077Z,83.16
2023-05-15T04:04:03.322Z,83.06
2023-05-15T04:05:03.643Z,82.75
2023-05-15T04:06:03.880Z,82.96
2023-05-15T04:07:04.126Z,82.96
2023-05-15T04:08:04.404Z,82.96
2023-05-15T04:09:05.566Z,82.71
2023-05-15T04:10:05.129Z,82.41
2023-05-15T04:11:05.458Z,82.41
2023-05-15T04:12:05.718Z,82.00
2023-05-15T04:13:05.975Z,82.10
2023-05-15T04:14:06.336Z,82.21
2023-05-15T04:15:06.594Z,82.61
2023-05-15T04:16:06.852Z,82.71
2023-05-15T04:17:07.247Z,82.51
2023-05-15T04:18:07.531Z,82.51
2023-05-15T04:19:07.831Z,82.07
2023-05-15T04:20:08.127Z,81.66
2023-05-15T04:21:09.317Z,80.94
2023-05-15T04:22:08.729Z,80.60
2023-05-15T04:23:09.104Z,80.80
2023-05-15T04:24:09.347Z,79.89
2023-05-15T04:25:09.786Z,79.38
2023-05-15T04:26:10.007Z,78.87
2023-05-15T04:27:10.262Z,78.63
2023-05-15T04:28:10.757Z,78.93
2023-05-15T04:29:10.898Z,79.64
2023-05-15T04:30:11.172Z,79.75
2023-05-15T04:31:12.415Z,79.61
2023-05-15T04:32:11.904Z,79.81
2023-05-15T04:33:12.203Z,80.02
2023-05-15T04:34:12.475Z,79.81
2023-05-15T04:35:12.867Z,79.77
2023-05-15T04:36:13.122Z,79.68
2023-05-15T04:37:13.494Z,79.47
2023-05-15T04:38:13.746Z,79.27
2023-05-15T04:39:14.032Z,79.23
2023-05-15T04:40:14.282Z,79.33
2023-05-15T04:41:14.526Z,78.82
2023-05-15T04:42:14.786Z,78.72
2023-05-15T04:43:15.056Z,78.21
2023-05-15T04:44:15.296Z,77.56
2023-05-15T04:45:15.681Z,77.16
2023-05-15T04:46:15.949Z,77.36
2023-05-15T04:47:16.284Z,77.56
2023-05-15T04:48:16.597Z,77.67
2023-05-15T04:49:16.958Z,77.12
2023-05-15T04:50:17.220Z,77.12
2023-05-15T04:51:17.451Z,77.33
2023-05-15T04:52:17.816Z,77.02
2023-05-15T04:53:18.181Z,77.02
2023-05-15T04:54:18.355Z,76.92
2023-05-15T04:55:18.759Z,77.02
2023-05-15T04:56:19.033Z,77.02
2023-05-15T04:57:19.288Z,77.02
2023-05-15T04:58:19.555Z,76.92
2023-05-15T04:59:19.883Z,76.82
2023-05-15T05:00:20.352Z,76.72
2023-05-15T05:01:20.639Z,76.41
2023-05-15T05:02:20.869Z,76.28
2023-05-15T05:03:21.201Z,76.78
2023-05-15T05:04:21.439Z,75.36
2023-05-15T05:05:21.810Z,75.05
2023-05-15T05:06:22.059Z,74.85
2023-05-15T05:07:22.341Z,75.76
2023-05-15T05:08:22.634Z,75.56
2023-05-15T05:09:22.905Z,75.67
2023-05-15T05:10:23.170Z,74.75
2023-05-15T05:11:23.399Z,75.26
2023-05-15T05:12:24.290Z,75.46
2023-05-15T05:13:23.927Z,75.87
2023-05-15T05:14:24.276Z,75.73
2023-05-15T05:15:24.814Z,75.83
2023-05-15T05:16:24.880Z,76.34
2023-05-15T05:17:25.122Z,76.44
2023-05-15T05:18:25.344Z,76.03
2023-05-15T05:19:25.573Z,75.73
2023-05-15T05:20:25.839Z,76.03
2023-05-15T05:21:26.078Z,76.24
2023-05-15T05:22:26.353Z,75.73
2023-05-15T05:23:26.575Z,74.98
2023-05-15T05:24:26.922Z,74.68
2023-05-15T05:25:27.367Z,74.48
2023-05-15T05:26:27.524Z,73.93
2023-05-15T05:27:27.786Z,73.73
2023-05-15T05:28:27.995Z,73.19
2023-05-15T05:29:28.357Z,72.78
2023-05-15T05:30:28.612Z,72.55
2023-05-15T05:31:28.898Z,72.24
2023-05-15T05:32:29.126Z,71.60
2023-05-15T05:33:29.437Z,71.20
2023-05-15T05:34:29.693Z,70.76
2023-05-15T05:35:29.941Z,70.65
2023-05-15T05:36:30.184Z,70.02
2023-05-15T05:37:30.416Z,69.51
2023-05-15T05:38:30.651Z,68.80
2023-05-15T05:39:31.073Z,68.67
2023-05-15T05:40:31.251Z,67.86
2023-05-15T05:41:31.488Z,67.43
2023-05-15T05:42:31.728Z,66.52
2023-05-15T05:43:31.965Z,66.11
2023-05-15T05:44:32.204Z,65.10
2023-05-15T05:45:32.484Z,65.00
2023-05-15T05:46:32.750Z,65.70
2023-05-15T05:47:32.994Z,65.70
2023-05-15T05:48:33.191Z,64.79
2023-05-15T05:49:33.449Z,65.50
2023-05-15T05:50:33.636Z,64.79
2023-05-15T05:51:33.967Z,64.67
2023-05-15T05:52:34.211Z,64.97
2023-05-15T05:53:41.573Z,64.33
2023-05-15T05:54:34.755Z,64.03
2023-05-15T05:55:35.113Z,63.49
2023-05-15T05:56:36.953Z,62.88
2023-05-15T05:57:35.625Z,62.35
2023-05-15T05:58:35.838Z,62.35
2023-05-15T05:59:36.176Z,62.22
2023-05-15T06:00:36.413Z,62.02
2023-05-15T06:01:36.648Z,61.32
2023-05-15T06:02:36.912Z,60.68
2023-05-15T06:03:37.251Z,59.92
2023-05-15T06:04:37.554Z,59.39
2023-05-15T06:05:37.792Z,58.53
2023-05-15T06:06:37.998Z,57.90
2023-05-15T06:07:38.327Z,56.03
2023-05-15T06:08:38.535Z,55.91
2023-05-15T06:09:38.871Z,55.98
2023-05-15T06:10:39.094Z,55.28
2023-05-15T06:11:39.311Z,55.28
2023-05-15T06:12:39.518Z,54.90
2023-05-15T06:13:39.836Z,55.93
2023-05-15T06:14:40.040Z,55.73
2023-05-15T06:15:40.346Z,55.48
2023-05-15T06:16:40.633Z,56.59
2023-05-15T06:17:40.933Z,56.69
2023-05-15T06:18:41.200Z,53.59
2023-05-15T06:19:42.025Z,54.35
2023-05-15T06:20:41.575Z,55.05
2023-05-15T06:21:41.844Z,54.05
2023-05-15T06:22:43.015Z,53.95
2023-05-15T06:23:42.357Z,54.71
2023-05-15T06:24:42.568Z,56.14
2023-05-15T06:25:42.849Z,56.27
2023-05-15T06:26:43.066Z,57.81
2023-05-15T06:27:43.289Z,58.61
2023-05-15T06:28:43.505Z,57.40
2023-05-15T06:29:43.715Z,58.11
2023-05-15T06:30:43.924Z,57.90
2023-05-15T06:31:45.294Z,56.92
2023-05-15T06:32:44.488Z,56.64
2023-05-15T06:33:44.740Z,57.35
2023-05-15T06:34:44.976Z,57.28
2023-05-15T06:35:45.207Z,58.58
2023-05-15T06:36:45.437Z,59.62
2023-05-15T06:37:46.569Z,59.82
2023-05-15T06:38:45.863Z,59.84
2023-05-15T06:39:46.160Z,59.82
2023-05-15T06:40:46.479Z,56.76
2023-05-15T06:41:46.687Z,55.66
2023-05-15T06:42:46.886Z,55.99
2023-05-15T06:43:47.081Z,56.11
2023-05-15T06:44:47.264Z,56.44
2023-05-15T06:45:47.528Z,57.35
2023-05-15T06:46:47.854Z,56.01
2023-05-15T06:47:48.038Z,54.20
2023-05-15T06:48:48.227Z,55.74
2023-05-15T06:49:48.437Z,56.34
2023-05-15T06:50:48.639Z,57.65
2023-05-15T06:51:48.829Z,56.34
2023-05-15T06:52:49.127Z,55.96
2023-05-15T06:53:49.316Z,56.95
2023-05-15T06:54:49.512Z,57.55
2023-05-15T06:55:49.702Z,57.12
2023-05-15T06:56:50.848Z,55.51
2023-05-15T06:57:50.212Z,55.28
2023-05-15T06:58:50.431Z,55.86
2023-05-15T06:59:50.613Z,55.66
2023-05-15T07:00:50.833Z,55.86
2023-05-15T07:01:51.022Z,55.66
2023-05-15T07:02:51.219Z,55.46
2023-05-15T07:03:51.458Z,56.16
2023-05-15T07:04:51.702Z,56.06
2023-05-15T07:05:51.926Z,56.36
2023-05-15T07:06:52.108Z,54.72
2023-05-15T07:07:52.295Z,54.02
2023-05-15T07:08:52.485Z,53.80
2023-05-15T07:09:52.662Z,53.59
2023-05-15T07:10:52.873Z,54.27
2023-05-15T07:11:53.089Z,53.27
2023-05-15T07:12:53.254Z,52.67
2023-05-15T07:13:53.568Z,52.84
2023-05-15T07:14:53.738Z,52.75
2023-05-15T07:15:57.158Z,52.01
2023-05-15T07:16:54.239Z,51.29
2023-05-15T07:17:54.498Z,51.49
2023-05-15T07:18:54.661Z,49.87
2023-05-15T07:19:54.803Z,49.76
2023-05-15T07:20:55.007Z,49.74
2023-05-15T07:21:55.195Z,49.84
2023-05-15T07:22:56.918Z,49.22
2023-05-15T07:23:56.622Z,49.22
2023-05-15T07:24:55.913Z,48.60
2023-05-15T07:25:56.093Z,47.65
2023-05-15T07:26:58.692Z,47.25
2023-05-15T07:27:56.459Z,47.10
2023-05-15T07:28:56.641Z,45.89
2023-05-15T07:29:56.833Z,44.84
2023-05-15T07:30:57.005Z,43.63
2023-05-15T07:31:57.296Z,44.01
2023-05-15T07:32:57.401Z,43.30
2023-05-15T07:33:57.598Z,45.00
2023-05-15T07:34:57.747Z,44.72
2023-05-15T07:35:57.904Z,45.04
2023-05-15T07:36:58.097Z,46.26
2023-05-15T07:37:58.265Z,46.28
2023-05-15T07:38:58.400Z,46.78
2023-05-15T07:39:58.694Z,46.36
2023-05-15T07:40:59.600Z,45.96
2023-05-15T07:41:58.881Z,45.06
2023-05-15T07:42:59.050Z,46.20
2023-05-15T07:44:00.192Z,46.70
2023-05-15T07:44:59.449Z,46.41
2023-05-15T07:45:59.636Z,46.03
2023-05-15T07:46:59.759Z,46.05
2023-05-15T07:47:59.974Z,47.07
2023-05-15T07:49:00.149Z,46.97
2023-05-15T07:50:00.269Z,47.60
2023-05-15T07:51:00.478Z,47.81
2023-05-15T07:52:04.449Z,47.61
2023-05-15T07:53:00.807Z,47.96
2023-05-15T07:54:01.017Z,48.49
2023-05-15T07:55:01.311Z,49.08
2023-05-15T07:56:01.435Z,49.58
2023-05-15T07:57:01.604Z,49.11
2023-05-15T07:58:01.840Z,49.61
2023-05-15T07:59:02.088Z,49.81
2023-05-15T08:00:02.254Z,50.21
2023-05-15T08:01:02.446Z,49.96
2023-05-15T08:02:02.725Z,50.26
2023-05-15T08:03:02.977Z,50.56
2023-05-15T08:04:03.146Z,50.46
2023-05-15T08:05:03.203Z,50.66
2023-05-15T08:06:03.400Z,51.37
2023-05-15T08:07:03.615Z,51.17
2023-05-15T08:08:03.829Z,51.17
2023-05-15T08:09:04.037Z,51.46
2023-05-15T08:10:04.321Z,50.86
2023-05-15T08:11:04.496Z,50.56
2023-05-15T08:12:04.788Z,51.46
2023-05-15T08:13:05.946Z,51.54
2023-05-15T08:14:05.305Z,52.04
2023-05-15T08:15:05.505Z,51.84
2023-05-15T08:16:05.752Z,51.44
2023-05-15T08:17:05.966Z,50.21
2023-05-15T08:18:06.255Z,51.64
2023-05-15T08:19:06.482Z,51.01
2023-05-15T08:20:06.625Z,51.24
2023-05-15T08:21:06.972Z,51.51
2023-05-15T08:22:07.049Z,49.61
2023-05-15T08:23:07.785Z,50.11
2023-05-15T08:24:07.676Z,50.81
2023-05-15T08:25:07.702Z,51.01
2023-05-15T08:26:08.875Z,51.12
2023-05-15T08:27:08.073Z,50.62
2023-05-15T08:28:08.445Z,50.62
2023-05-15T08:29:08.534Z,50.01
2023-05-15T08:30:08.690Z,49.21
2023-05-15T08:31:09.101Z,49.81
2023-05-15T08:32:09.248Z,49.99
2023-05-15T08:33:09.531Z,50.89
2023-05-15T08:34:09.628Z,50.79
2023-05-15T08:35:09.886Z,49.76
2023-05-15T08:36:10.102Z,49.07
2023-05-15T08:37:10.267Z,49.54
2023-05-15T08:38:11.406Z,49.34
2023-05-15T08:39:10.682Z,49.04
2023-05-15T08:40:10.904Z,49.54
2023-05-15T08:41:11.104Z,48.82
2023-05-15T08:42:11.255Z,48.19
2023-05-15T08:43:11.426Z,47.87
2023-05-15T08:44:11.602Z,47.57
2023-05-15T08:45:11.762Z,45.57
2023-05-15T08:46:11.965Z,46.25
2023-05-15T08:47:12.205Z,46.07
2023-05-15T08:48:12.394Z,46.47
2023-05-15T08:49:12.906Z,46.47
2023-05-15T08:50:13.833Z,46.67
2023-05-15T08:51:13.027Z,47.07
2023-05-15T08:52:13.197Z,46.57
2023-05-15T08:53:13.429Z,47.27
2023-05-15T08:54:13.594Z,47.19
2023-05-15T08:55:13.803Z,46.80
2023-05-15T08:56:14.303Z,47.69
2023-05-15T08:57:14.290Z,48.11
2023-05-15T08:58:14.683Z,48.84
2023-05-15T08:59:14.633Z,48.94
2023-05-15T09:00:15.150Z,49.37
2023-05-15T09:01:15.142Z,49.66
2023-05-15T09:02:15.285Z,48.58
2023-05-15T09:03:15.558Z,48.79
2023-05-15T09:04:15.745Z,48.99
2023-05-15T09:05:16.023Z,49.21
2023-05-15T09:06:16.237Z,49.31
2023-05-15T09:07:16.527Z,49.31
2023-05-15T09:08:16.704Z,50.04
2023-05-15T09:09:16.873Z,50.04
2023-05-15T09:10:17.054Z,49.93
2023-05-15T09:11:17.271Z,50.24
2023-05-15T09:12:17.474Z,50.46
2023-05-15T09:13:17.688Z,50.76
2023-05-15T09:14:18.592Z,51.37
2023-05-15T09:15:18.236Z,51.67
2023-05-15T09:16:18.352Z,51.17
2023-05-15T09:17:18.643Z,50.56
2023-05-15T09:18:18.856Z,50.34
2023-05-15T09:19:19.073Z,50.63
2023-05-15T09:20:19.296Z,50.13
2023-05-15T09:21:20.434Z,50.74
2023-05-15T09:22:19.756Z,50.44
2023-05-15T09:23:19.952Z,50.63
2023-05-15T09:24:20.150Z,50.44
2023-05-15T09:25:20.409Z,50.34
2023-05-15T09:26:20.702Z,50.74
2023-05-15T09:27:20.995Z,50.74
2023-05-15T09:28:21.225Z,50.84
2023-05-15T09:29:21.415Z,50.44
2023-05-15T09:30:21.631Z,50.84
2023-05-15T09:31:21.889Z,50.21
2023-05-15T09:32:22.197Z,50.21
2023-05-15T09:33:22.253Z,49.29
2023-05-15T09:34:22.469Z,49.69
2023-05-15T09:35:22.963Z,49.69
2023-05-15T09:36:22.941Z,50.29
2023-05-15T09:37:23.233Z,49.99
2023-05-15T09:38:23.470Z,50.69
2023-05-15T09:39:23.748Z,49.31
2023-05-15T09:40:23.877Z,49.58
2023-05-15T09:41:24.207Z,50.39
2023-05-15T09:42:24.514Z,50.09
2023-05-15T09:43:24.733Z,49.99
2023-05-15T09:44:25.056Z,48.49
2023-05-15T09:45:25.445Z,48.89
2023-05-15T09:46:25.514Z,49.69
2023-05-15T09:47:25.803Z,49.79
2023-05-15T09:48:25.939Z,49.49
2023-05-15T09:49:26.185Z,49.58
2023-05-15T09:50:26.379Z,48.89
2023-05-15T09:51:26.536Z,49.39
2023-05-15T09:52:26.723Z,50.39
2023-05-15T09:53:26.898Z,49.39
2023-05-15T09:54:27.083Z,48.99
2023-05-15T09:55:27.313Z,49.58
2023-05-15T09:56:27.489Z,49.37
2023-05-15T09:57:27.695Z,49.46
2023-05-15T09:58:27.859Z,48.16
2023-05-15T09:59:28.110Z,47.54
2023-05-15T10:00:29.125Z,47.24
2023-05-15T10:01:29.519Z,48.74
2023-05-15T10:02:28.834Z,48.92
2023-05-15T10:03:29.093Z,49.02
2023-05-15T10:04:29.179Z,48.52
2023-05-15T10:05:42.499Z,48.11
2023-05-15T10:06:30.636Z,48.69
2023-05-15T10:07:30.100Z,48.60
2023-05-15T10:08:30.006Z,48.37
2023-05-15T10:09:30.273Z,47.75
2023-05-15T10:10:30.438Z,47.55
2023-05-15T10:11:30.958Z,45.35
2023-05-15T10:12:30.811Z,45.57
2023-05-15T10:13:30.973Z,46.05
2023-05-15T10:14:31.148Z,44.95
2023-05-15T10:15:31.316Z,46.05
2023-05-15T10:16:31.523Z,45.95
2023-05-15T10:17:31.793Z,46.15
2023-05-15T10:18:31.948Z,46.73
2023-05-15T10:19:32.107Z,46.50
2023-05-15T10:20:32.282Z,46.11
2023-05-15T10:21:32.472Z,44.69
2023-05-15T10:22:32.651Z,45.98
2023-05-15T10:23:32.823Z,45.86
2023-05-15T10:24:33.017Z,44.84
2023-05-15T10:25:33.351Z,44.65
2023-05-15T10:26:33.396Z,44.45
2023-05-15T10:27:33.572Z,43.82
2023-05-15T10:28:33.718Z,43.82
2023-05-15T10:29:33.881Z,43.93
2023-05-15T10:30:34.041Z,44.31
2023-05-15T10:31:34.196Z,44.10
2023-05-15T10:32:34.384Z,43.80
2023-05-15T10:33:34.576Z,44.08
2023-05-15T10:34:34.690Z,44.18
2023-05-15T10:35:34.844Z,44.48
2023-05-15T10:36:34.982Z,43.86
2023-05-15T10:37:35.203Z,44.38
2023-05-15T10:38:35.359Z,44.70
2023-05-15T10:39:35.520Z,45.72
2023-05-15T10:40:35.668Z,46.12
2023-05-15T10:41:35.881Z,45.42
2023-05-15T10:42:36.061Z,45.82
2023-05-15T10:43:36.248Z,46.12
2023-05-15T10:44:36.395Z,46.34
2023-05-15T10:45:36.548Z,46.24
2023-05-15T10:46:36.771Z,46.16
2023-05-15T10:47:37.961Z,45.09
2023-05-15T10:48:37.161Z,44.91
2023-05-15T10:49:37.330Z,44.43
2023-05-15T10:50:37.478Z,45.95
2023-05-15T10:51:37.659Z,45.65
2023-05-15T10:52:37.822Z,45.69
2023-05-15T10:53:37.996Z,45.92
2023-05-15T10:54:38.163Z,46.72
2023-05-15T10:55:39.315Z,46.81
2023-05-15T10:56:38.596Z,47.61
2023-05-15T10:57:38.805Z,49.11
2023-05-15T10:58:39.274Z,50.02
2023-05-15T10:59:39.246Z,48.14
2023-05-15T11:00:39.663Z,48.54
2023-05-15T11:01:39.763Z,48.94
2023-05-15T11:02:39.936Z,48.24
2023-05-15T11:03:48.520Z,47.92
2023-05-15T11:04:41.352Z,48.72
2023-05-15T11:05:40.417Z,48.61
2023-05-15T11:06:40.609Z,48.61
2023-05-15T11:07:40.888Z,48.61
2023-05-15T11:08:40.956Z,48.22
2023-05-15T11:09:41.137Z,48.44
2023-05-15T11:10:41.309Z,48.84
2023-05-15T11:11:41.659Z,49.37
2023-05-15T11:12:41.818Z,49.99
2023-05-15T11:13:42.163Z,49.79
2023-05-15T11:14:42.274Z,50.29
2023-05-15T11:15:42.483Z,50.57
2023-05-15T11:16:42.702Z,50.46
2023-05-15T11:17:42.896Z,51.14
2023-05-15T11:18:43.088Z,51.54
2023-05-15T11:19:43.271Z,50.22
2023-05-15T11:20:43.453Z,50.22
2023-05-15T11:21:43.667Z,50.02
2023-05-15T11:22:43.883Z,50.02
2023-05-15T11:23:44.084Z,49.91
2023-05-15T11:24:44.329Z,51.39
2023-05-15T11:25:44.509Z,50.29
2023-05-15T11:26:44.661Z,49.99
2023-05-15T11:27:45.038Z,49.90
2023-05-15T11:28:45.216Z,49.99
2023-05-15T11:29:45.392Z,49.57
2023-05-15T11:30:45.685Z,48.94
2023-05-15T11:31:45.850Z,48.32
2023-05-15T11:32:46.051Z,47.20
2023-05-15T11:33:46.237Z,46.78
2023-05-15T11:34:46.418Z,46.19
2023-05-15T11:35:46.643Z,45.98
2023-05-15T11:36:46.761Z,47.48
2023-05-15T11:37:46.940Z,47.20
2023-05-15T11:38:47.109Z,45.71
2023-05-15T11:39:47.278Z,46.61
2023-05-15T11:40:47.472Z,47.18
2023-05-15T11:41:47.649Z,46.48
2023-05-15T11:42:48.099Z,46.68
2023-05-15T11:43:48.041Z,46.36
2023-05-15T11:44:48.189Z,45.84
2023-05-15T11:45:48.466Z,44.65
2023-05-15T11:46:48.757Z,45.52
2023-05-15T11:47:48.806Z,44.72
2023-05-15T11:48:48.975Z,44.10
2023-05-15T11:49:49.125Z,44.18
2023-05-15T11:50:49.334Z,43.57
2023-05-15T11:51:50.030Z,43.66
2023-05-15T11:52:49.627Z,43.15
2023-05-15T11:53:56.909Z,42.63
2023-05-15T11:54:52.664Z,42.21
2023-05-15T11:55:50.275Z,41.00
2023-05-15T11:56:50.431Z,40.42
2023-05-15T11:57:50.596Z,38.88
2023-05-15T11:58:50.836Z,37.62
2023-05-15T11:59:50.978Z,36.38
2023-05-15T12:00:51.110Z,34.89
2023-05-15T12:01:51.248Z,35.64
2023-05-15T12:02:51.442Z,35.00
2023-05-15T12:03:51.730Z,33.67
2023-05-15T12:04:51.827Z,33.64
2023-05-15T12:05:59.199Z,31.97
2023-05-15T12:06:53.042Z,31.37
2023-05-15T12:07:52.162Z,31.34
2023-05-15T12:08:52.254Z,30.96
2023-05-15T12:09:52.388Z,31.74
2023-05-15T12:10:52.483Z,33.46
2023-05-15T12:11:52.600Z,34.06
2023-05-15T12:12:52.707Z,33.89
2023-05-15T12:13:52.857Z,33.79
2023-05-15T12:14:53.848Z,33.69
2023-05-15T12:15:53.109Z,34.20
2023-05-15T12:16:53.330Z,33.92
2023-05-15T12:17:53.470Z,34.61
2023-05-15T12:18:53.609Z,33.95
2023-05-15T12:19:53.696Z,34.76
2023-05-15T12:20:53.778Z,34.79
2023-05-15T12:21:53.887Z,35.19
2023-05-15T12:22:53.993Z,35.17
2023-05-15T12:24:06.221Z,35.68
2023-05-15T12:24:55.199Z,35.80
2023-05-15T12:25:54.314Z,35.99
2023-05-15T12:26:56.035Z,35.72
2023-05-15T12:27:54.558Z,36.43
2023-05-15T12:28:54.656Z,37.10
2023-05-15T12:29:54.766Z,35.60
2023-05-15T12:30:54.911Z,35.57
2023-05-15T12:31:55.061Z,36.57
2023-05-15T12:32:55.219Z,35.35
2023-05-15T12:33:55.325Z,34.74
2023-05-15T12:34:55.388Z,34.66
2023-05-15T12:35:58.941Z,35.37
2023-05-15T12:36:56.597Z,34.78
2023-05-15T12:37:55.741Z,35.58
2023-05-15T12:38:55.837Z,36.77
2023-05-15T12:39:55.963Z,36.18
2023-05-15T12:40:56.057Z,35.88
2023-05-15T12:41:56.177Z,35.72
2023-05-15T12:42:56.314Z,37.41
2023-05-15T12:43:56.405Z,36.82
2023-05-15T12:44:56.518Z,37.10
2023-05-15T12:45:56.680Z,36.92
2023-05-15T12:46:56.776Z,37.75
2023-05-15T12:47:56.940Z,38.46
2023-05-15T12:48:57.076Z,38.68
2023-05-15T12:49:57.189Z,38.68
2023-05-15T12:50:57.410Z,39.71
2023-05-15T12:51:57.525Z,40.33
2023-05-15T12:52:57.666Z,40.64
2023-05-15T12:53:57.785Z,41.85
2023-05-15T12:54:57.917Z,41.83
2023-05-15T12:55:58.058Z,40.33